KERV/ERV METAR and TAF weather

Enter ICAO airport designator
Station Type Date Time Source
KERV METAR 2022/11/30 16:15 UTC NOAA

KERV 301615Z AUTO 02011KT 10SM CLR 07/M03 A3037 RMK AO2 T00721027


Station Type Date Time Source
KERV Decoded METAR 2022/11/30 16:15 UTC NOAA

Kerrville, Kerrville Municipal Airport/Louis Schreiner Field, TX, United States (KERV) 29-58N 099-05W
Nov 30, 2022 - 11:15 AM EST / 2022.11.30 1615 UTC
Wind: from the NNE (020 degrees) at 13 MPH (11 KT):0
Visibility: 10 mile(s):0
Sky conditions: clear
Temperature: 45.0 F (7.2 C)
Dew Point: 27.1 F (-2.7 C)
Relative Humidity: 49%
Pressure (altimeter): 30.37 in. Hg (1028 hPa)
ob: KERV 301615Z AUTO 02011KT 10SM CLR 07/M03 A3037 RMK AO2 T00721027
cycle: 16

Station Type Date Time Source
KERV TAF UTC NOAA

Error!

Example: see airport list